sensor_id;sensor_type;location;lat;lon;timestamp;P1;durP1;ratioP1;P2;durP2;ratioP2
35150;SDS011;55720;51.972;4.624;2023-08-31T00:00:15;5.90;;;1.80;;
35150;SDS011;55720;51.972;4.624;2023-08-31T00:02:40;9.40;;;2.15;;
35150;SDS011;55720;51.972;4.624;2023-08-31T00:05:06;3.20;;;1.80;;
35150;SDS011;55720;51.972;4.624;2023-08-31T00:07:31;4.10;;;1.70;;
35150;SDS011;55720;51.972;4.624;2023-08-31T00:09:57;6.38;;;2.10;;
35150;SDS011;55720;51.972;4.624;2023-08-31T00:12:23;2.75;;;1.75;;
35150;SDS011;55720;51.972;4.624;2023-08-31T00:14:49;3.88;;;1.63;;
35150;SDS011;55720;51.972;4.624;2023-08-31T00:17:14;3.95;;;1.80;;
35150;SDS011;55720;51.972;4.624;2023-08-31T00:19:40;1.70;;;1.60;;
35150;SDS011;55720;51.972;4.624;2023-08-31T00:22:05;2.72;;;1.70;;
35150;SDS011;55720;51.972;4.624;2023-08-31T00:24:30;8.60;;;2.10;;
35150;SDS011;55720;51.972;4.624;2023-08-31T00:26:58;7.85;;;2.10;;
35150;SDS011;55720;51.972;4.624;2023-08-31T00:29:23;12.27;;;2.13;;
35150;SDS011;55720;51.972;4.624;2023-08-31T00:31:50;7.22;;;2.03;;
35150;SDS011;55720;51.972;4.624;2023-08-31T00:34:16;3.90;;;1.90;;
35150;SDS011;55720;51.972;4.624;2023-08-31T00:36:42;8.55;;;2.17;;
35150;SDS011;55720;51.972;4.624;2023-08-31T00:39:07;3.90;;;2.00;;
35150;SDS011;55720;51.972;4.624;2023-08-31T00:41:35;3.85;;;1.77;;
35150;SDS011;55720;51.972;4.624;2023-08-31T00:44:01;7.20;;;1.80;;
35150;SDS011;55720;51.972;4.624;2023-08-31T00:46:27;6.22;;;1.92;;
35150;SDS011;55720;51.972;4.624;2023-08-31T00:48:53;6.82;;;1.90;;
35150;SDS011;55720;51.972;4.624;2023-08-31T00:51:18;6.05;;;1.90;;
35150;SDS011;55720;51.972;4.624;2023-08-31T00:53:43;3.33;;;1.70;;
35150;SDS011;55720;51.972;4.624;2023-08-31T00:56:08;5.00;;;1.80;;
35150;SDS011;55720;51.972;4.624;2023-08-31T00:58:34;4.25;;;1.40;;
35150;SDS011;55720;51.972;4.624;2023-08-31T01:06:27;5.32;;;1.60;;
35150;SDS011;55720;51.972;4.624;2023-08-31T01:08:59;4.57;;;1.58;;
35150;SDS011;55720;51.972;4.624;2023-08-31T01:12:03;2.15;;;1.33;;
35150;SDS011;55720;51.972;4.624;2023-08-31T01:14:22;2.10;;;1.48;;
35150;SDS011;55720;51.972;4.624;2023-08-31T01:16:48;3.20;;;1.80;;
35150;SDS011;55720;51.972;4.624;2023-08-31T01:21:42;3.97;;;1.85;;
35150;SDS011;55720;51.972;4.624;2023-08-31T01:24:10;6.55;;;1.88;;
35150;SDS011;55720;51.972;4.624;2023-08-31T01:26:36;2.80;;;1.60;;
35150;SDS011;55720;51.972;4.624;2023-08-31T01:29:01;5.60;;;2.30;;
35150;SDS011;55720;51.972;4.624;2023-08-31T01:31:27;1.90;;;1.67;;
35150;SDS011;55720;51.972;4.624;2023-08-31T01:33:52;2.70;;;2.13;;
35150;SDS011;55720;51.972;4.624;2023-08-31T01:38:43;6.35;;;1.92;;
35150;SDS011;55720;51.972;4.624;2023-08-31T01:41:10;6.13;;;2.03;;
35150;SDS011;55720;51.972;4.624;2023-08-31T01:43:39;2.08;;;1.88;;
35150;SDS011;55720;51.972;4.624;2023-08-31T01:46:05;3.78;;;1.70;;
35150;SDS011;55720;51.972;4.624;2023-08-31T01:48:31;4.28;;;1.85;;
35150;SDS011;55720;51.972;4.624;2023-08-31T01:51:02;3.95;;;1.70;;
35150;SDS011;55720;51.972;4.624;2023-08-31T01:53:28;2.97;;;1.65;;
35150;SDS011;55720;51.972;4.624;2023-08-31T01:55:54;2.47;;;1.40;;
35150;SDS011;55720;51.972;4.624;2023-08-31T01:58:19;3.23;;;1.53;;
35150;SDS011;55720;51.972;4.624;2023-08-31T02:00:44;4.25;;;1.48;;
35150;SDS011;55720;51.972;4.624;2023-08-31T02:03:10;3.17;;;1.40;;
35150;SDS011;55720;51.972;4.624;2023-08-31T02:05:36;1.50;;;1.38;;
35150;SDS011;55720;51.972;4.624;2023-08-31T02:08:01;4.63;;;1.60;;
35150;SDS011;55720;51.972;4.624;2023-08-31T02:10:26;3.70;;;1.60;;
35150;SDS011;55720;51.972;4.624;2023-08-31T02:12:52;3.70;;;1.33;;
35150;SDS011;55720;51.972;4.624;2023-08-31T02:15:17;2.60;;;1.47;;
35150;SDS011;55720;51.972;4.624;2023-08-31T02:17:42;3.93;;;1.57;;
35150;SDS011;55720;51.972;4.624;2023-08-31T02:20:08;7.45;;;1.77;;
35150;SDS011;55720;51.972;4.624;2023-08-31T02:22:34;3.40;;;1.70;;
35150;SDS011;55720;51.972;4.624;2023-08-31T02:24:59;2.70;;;1.88;;
35150;SDS011;55720;51.972;4.624;2023-08-31T02:27:26;4.60;;;1.70;;
35150;SDS011;55720;51.972;4.624;2023-08-31T02:29:51;1.60;;;1.50;;
35150;SDS011;55720;51.972;4.624;2023-08-31T02:32:16;4.55;;;2.00;;
35150;SDS011;55720;51.972;4.624;2023-08-31T02:34:41;3.17;;;1.57;;
35150;SDS011;55720;51.972;4.624;2023-08-31T02:37:06;4.23;;;1.70;;
35150;SDS011;55720;51.972;4.624;2023-08-31T02:39:32;5.70;;;1.77;;
35150;SDS011;55720;51.972;4.624;2023-08-31T02:41:57;3.92;;;2.30;;
35150;SDS011;55720;51.972;4.624;2023-08-31T02:44:22;4.47;;;1.95;;
35150;SDS011;55720;51.972;4.624;2023-08-31T02:46:48;4.40;;;2.43;;
35150;SDS011;55720;51.972;4.624;2023-08-31T02:49:13;2.30;;;2.10;;
35150;SDS011;55720;51.972;4.624;2023-08-31T02:51:38;3.00;;;2.38;;
35150;SDS011;55720;51.972;4.624;2023-08-31T02:54:03;4.72;;;2.55;;
35150;SDS011;55720;51.972;4.624;2023-08-31T02:56:28;4.00;;;3.05;;
35150;SDS011;55720;51.972;4.624;2023-08-31T02:58:54;2.83;;;2.60;;
35150;SDS011;55720;51.972;4.624;2023-08-31T03:01:19;3.25;;;2.95;;
35150;SDS011;55720;51.972;4.624;2023-08-31T03:03:44;4.90;;;2.90;;
35150;SDS011;55720;51.972;4.624;2023-08-31T03:06:11;9.10;;;3.25;;
35150;SDS011;55720;51.972;4.624;2023-08-31T03:08:36;5.50;;;2.70;;
35150;SDS011;55720;51.972;4.624;2023-08-31T03:11:02;3.60;;;3.00;;
35150;SDS011;55720;51.972;4.624;2023-08-31T03:13:27;6.03;;;3.05;;
35150;SDS011;55720;51.972;4.624;2023-08-31T03:15:52;8.57;;;3.38;;
35150;SDS011;55720;51.972;4.624;2023-08-31T03:18:18;7.50;;;3.15;;
35150;SDS011;55720;51.972;4.624;2023-08-31T03:20:43;10.07;;;3.13;;
35150;SDS011;55720;51.972;4.624;2023-08-31T03:23:09;4.65;;;3.05;;
35150;SDS011;55720;51.972;4.624;2023-08-31T03:25:36;8.07;;;3.05;;
35150;SDS011;55720;51.972;4.624;2023-08-31T03:28:01;5.03;;;3.15;;
35150;SDS011;55720;51.972;4.624;2023-08-31T03:30:26;5.78;;;3.38;;
35150;SDS011;55720;51.972;4.624;2023-08-31T03:32:51;5.27;;;3.10;;
35150;SDS011;55720;51.972;4.624;2023-08-31T03:35:16;5.50;;;3.33;;
35150;SDS011;55720;51.972;4.624;2023-08-31T03:37:42;11.03;;;3.13;;
35150;SDS011;55720;51.972;4.624;2023-08-31T03:40:07;3.93;;;2.73;;
35150;SDS011;55720;51.972;4.624;2023-08-31T03:42:33;5.40;;;3.20;;
35150;SDS011;55720;51.972;4.624;2023-08-31T03:44:59;6.45;;;3.15;;
35150;SDS011;55720;51.972;4.624;2023-08-31T03:47:24;6.15;;;3.03;;
35150;SDS011;55720;51.972;4.624;2023-08-31T03:49:49;4.78;;;2.65;;
35150;SDS011;55720;51.972;4.624;2023-08-31T03:52:14;6.27;;;2.87;;
35150;SDS011;55720;51.972;4.624;2023-08-31T03:54:39;6.00;;;2.70;;
35150;SDS011;55720;51.972;4.624;2023-08-31T03:57:05;5.83;;;2.40;;
35150;SDS011;55720;51.972;4.624;2023-08-31T03:59:30;7.93;;;2.27;;
35150;SDS011;55720;51.972;4.624;2023-08-31T04:01:55;6.22;;;2.30;;
35150;SDS011;55720;51.972;4.624;2023-08-31T04:04:20;5.68;;;2.50;;
35150;SDS011;55720;51.972;4.624;2023-08-31T04:06:45;5.63;;;2.30;;
35150;SDS011;55720;51.972;4.624;2023-08-31T04:09:11;6.72;;;2.20;;
35150;SDS011;55720;51.972;4.624;2023-08-31T04:11:36;4.60;;;1.92;;
35150;SDS011;55720;51.972;4.624;2023-08-31T04:14:01;7.68;;;2.13;;
35150;SDS011;55720;51.972;4.624;2023-08-31T04:16:27;5.73;;;1.83;;
35150;SDS011;55720;51.972;4.624;2023-08-31T04:18:54;2.65;;;2.10;;
35150;SDS011;55720;51.972;4.624;2023-08-31T04:21:19;4.25;;;2.13;;
35150;SDS011;55720;51.972;4.624;2023-08-31T04:23:44;4.43;;;2.08;;
35150;SDS011;55720;51.972;4.624;2023-08-31T04:26:11;3.20;;;1.83;;
35150;SDS011;55720;51.972;4.624;2023-08-31T04:28:37;6.43;;;2.00;;
35150;SDS011;55720;51.972;4.624;2023-08-31T04:31:04;3.88;;;2.00;;
35150;SDS011;55720;51.972;4.624;2023-08-31T04:33:29;4.20;;;2.00;;
35150;SDS011;55720;51.972;4.624;2023-08-31T04:35:54;4.82;;;2.25;;
35150;SDS011;55720;51.972;4.624;2023-08-31T04:38:20;5.77;;;1.83;;
35150;SDS011;55720;51.972;4.624;2023-08-31T04:40:45;3.27;;;1.50;;
35150;SDS011;55720;51.972;4.624;2023-08-31T04:43:10;7.10;;;1.67;;
35150;SDS011;55720;51.972;4.624;2023-08-31T04:45:35;11.70;;;2.00;;
35150;SDS011;55720;51.972;4.624;2023-08-31T04:48:00;3.53;;;1.97;;
35150;SDS011;55720;51.972;4.624;2023-08-31T04:50:26;7.82;;;2.08;;
35150;SDS011;55720;51.972;4.624;2023-08-31T04:52:51;4.07;;;1.87;;
35150;SDS011;55720;51.972;4.624;2023-08-31T04:55:16;6.83;;;1.97;;
35150;SDS011;55720;51.972;4.624;2023-08-31T04:57:41;10.93;;;1.90;;
35150;SDS011;55720;51.972;4.624;2023-08-31T05:00:07;3.22;;;1.60;;
35150;SDS011;55720;51.972;4.624;2023-08-31T05:02:34;6.57;;;1.73;;
35150;SDS011;55720;51.972;4.624;2023-08-31T05:04:59;2.67;;;1.73;;
35150;SDS011;55720;51.972;4.624;2023-08-31T05:07:24;3.22;;;1.40;;
35150;SDS011;55720;51.972;4.624;2023-08-31T05:09:50;4.60;;;1.83;;
35150;SDS011;55720;51.972;4.624;2023-08-31T05:12:15;8.07;;;1.77;;
35150;SDS011;55720;51.972;4.624;2023-08-31T05:14:42;7.68;;;1.45;;
35150;SDS011;55720;51.972;4.624;2023-08-31T05:17:07;2.63;;;1.45;;
35150;SDS011;55720;51.972;4.624;2023-08-31T05:19:33;4.10;;;1.70;;
35150;SDS011;55720;51.972;4.624;2023-08-31T05:21:58;2.08;;;1.45;;
35150;SDS011;55720;51.972;4.624;2023-08-31T05:24:23;4.57;;;1.53;;
35150;SDS011;55720;51.972;4.624;2023-08-31T05:26:49;3.03;;;1.58;;
35150;SDS011;55720;51.972;4.624;2023-08-31T05:29:14;4.70;;;1.35;;
35150;SDS011;55720;51.972;4.624;2023-08-31T05:31:39;1.73;;;1.50;;
35150;SDS011;55720;51.972;4.624;2023-08-31T05:34:05;1.30;;;1.20;;
35150;SDS011;55720;51.972;4.624;2023-08-31T05:36:30;4.70;;;1.48;;
35150;SDS011;55720;51.972;4.624;2023-08-31T05:38:55;1.97;;;1.23;;
35150;SDS011;55720;51.972;4.624;2023-08-31T05:41:20;5.45;;;1.40;;
35150;SDS011;55720;51.972;4.624;2023-08-31T05:43:46;2.42;;;1.30;;
35150;SDS011;55720;51.972;4.624;2023-08-31T05:46:11;6.80;;;1.50;;
35150;SDS011;55720;51.972;4.624;2023-08-31T05:48:36;8.05;;;1.70;;
35150;SDS011;55720;51.972;4.624;2023-08-31T05:51:02;6.25;;;1.73;;
35150;SDS011;55720;51.972;4.624;2023-08-31T05:53:28;2.58;;;1.40;;
35150;SDS011;55720;51.972;4.624;2023-08-31T05:55:54;3.22;;;1.40;;
35150;SDS011;55720;51.972;4.624;2023-08-31T05:58:19;4.70;;;1.52;;
35150;SDS011;55720;51.972;4.624;2023-08-31T06:00:45;3.40;;;1.43;;
35150;SDS011;55720;51.972;4.624;2023-08-31T06:03:10;5.50;;;1.67;;
35150;SDS011;55720;51.972;4.624;2023-08-31T06:05:36;1.75;;;1.52;;
35150;SDS011;55720;51.972;4.624;2023-08-31T06:08:01;5.18;;;1.90;;
35150;SDS011;55720;51.972;4.624;2023-08-31T06:10:26;6.03;;;1.53;;
35150;SDS011;55720;51.972;4.624;2023-08-31T06:12:51;3.03;;;1.70;;
35150;SDS011;55720;51.972;4.624;2023-08-31T06:15:17;5.23;;;1.83;;
35150;SDS011;55720;51.972;4.624;2023-08-31T06:17:42;6.90;;;1.50;;
35150;SDS011;55720;51.972;4.624;2023-08-31T06:20:08;2.63;;;1.63;;
35150;SDS011;55720;51.972;4.624;2023-08-31T06:22:33;5.88;;;1.65;;
35150;SDS011;55720;51.972;4.624;2023-08-31T06:24:58;3.35;;;1.80;;
35150;SDS011;55720;51.972;4.624;2023-08-31T06:27:24;3.08;;;1.40;;
35150;SDS011;55720;51.972;4.624;2023-08-31T06:29:50;3.50;;;1.25;;
35150;SDS011;55720;51.972;4.624;2023-08-31T06:32:15;7.17;;;1.17;;
35150;SDS011;55720;51.972;4.624;2023-08-31T06:34:40;6.43;;;1.20;;
35150;SDS011;55720;51.972;4.624;2023-08-31T06:37:06;3.17;;;1.10;;
35150;SDS011;55720;51.972;4.624;2023-08-31T06:39:31;1.98;;;1.10;;
35150;SDS011;55720;51.972;4.624;2023-08-31T06:41:57;4.00;;;1.00;;
35150;SDS011;55720;51.972;4.624;2023-08-31T06:44:23;5.47;;;0.90;;
35150;SDS011;55720;51.972;4.624;2023-08-31T06:46:48;2.60;;;0.75;;
35150;SDS011;55720;51.972;4.624;2023-08-31T06:49:13;5.10;;;0.90;;
35150;SDS011;55720;51.972;4.624;2023-08-31T06:51:40;5.03;;;0.65;;
35150;SDS011;55720;51.972;4.624;2023-08-31T06:54:05;2.15;;;0.80;;
35150;SDS011;55720;51.972;4.624;2023-08-31T06:56:33;1.45;;;0.50;;
35150;SDS011;55720;51.972;4.624;2023-08-31T06:58:59;2.22;;;0.60;;
35150;SDS011;55720;51.972;4.624;2023-08-31T07:01:24;2.80;;;0.70;;
35150;SDS011;55720;51.972;4.624;2023-08-31T07:03:49;2.80;;;0.60;;
35150;SDS011;55720;51.972;4.624;2023-08-31T07:06:14;0.90;;;0.40;;
35150;SDS011;55720;51.972;4.624;2023-08-31T07:08:40;0.97;;;0.40;;
35150;SDS011;55720;51.972;4.624;2023-08-31T07:11:06;2.80;;;0.80;;
35150;SDS011;55720;51.972;4.624;2023-08-31T07:13:31;2.20;;;0.73;;
35150;SDS011;55720;51.972;4.624;2023-08-31T07:15:56;4.10;;;1.07;;
35150;SDS011;55720;51.972;4.624;2023-08-31T07:18:22;1.55;;;0.60;;
35150;SDS011;55720;51.972;4.624;2023-08-31T07:20:47;4.17;;;0.53;;
35150;SDS011;55720;51.972;4.624;2023-08-31T07:23:12;1.17;;;0.57;;
35150;SDS011;55720;51.972;4.624;2023-08-31T07:25:37;2.72;;;0.75;;
35150;SDS011;55720;51.972;4.624;2023-08-31T07:28:03;2.23;;;0.50;;
35150;SDS011;55720;51.972;4.624;2023-08-31T07:30:28;2.20;;;0.75;;
35150;SDS011;55720;51.972;4.624;2023-08-31T07:32:55;1.67;;;0.77;;
35150;SDS011;55720;51.972;4.624;2023-08-31T07:35:20;1.92;;;0.70;;
35150;SDS011;55720;51.972;4.624;2023-08-31T07:37:45;2.67;;;0.47;;
35150;SDS011;55720;51.972;4.624;2023-08-31T07:40:11;2.92;;;1.00;;
35150;SDS011;55720;51.972;4.624;2023-08-31T07:42:36;1.85;;;0.60;;
35150;SDS011;55720;51.972;4.624;2023-08-31T07:45:01;2.35;;;0.95;;
35150;SDS011;55720;51.972;4.624;2023-08-31T07:47:27;2.50;;;0.60;;
35150;SDS011;55720;51.972;4.624;2023-08-31T07:49:52;1.60;;;0.60;;
35150;SDS011;55720;51.972;4.624;2023-08-31T07:52:18;2.90;;;0.57;;
35150;SDS011;55720;51.972;4.624;2023-08-31T07:54:44;4.78;;;0.70;;
35150;SDS011;55720;51.972;4.624;2023-08-31T07:57:09;3.17;;;0.60;;
35150;SDS011;55720;51.972;4.624;2023-08-31T07:59:34;2.00;;;0.50;;
35150;SDS011;55720;51.972;4.624;2023-08-31T08:02:00;1.23;;;0.40;;
35150;SDS011;55720;51.972;4.624;2023-08-31T08:04:25;5.78;;;0.55;;
35150;SDS011;55720;51.972;4.624;2023-08-31T08:06:51;1.95;;;0.47;;
35150;SDS011;55720;51.972;4.624;2023-08-31T08:09:17;5.00;;;0.40;;
35150;SDS011;55720;51.972;4.624;2023-08-31T08:11:42;3.47;;;0.60;;
35150;SDS011;55720;51.972;4.624;2023-08-31T08:14:08;1.20;;;0.38;;
35150;SDS011;55720;51.972;4.624;2023-08-31T08:16:33;0.82;;;0.43;;
35150;SDS011;55720;51.972;4.624;2023-08-31T08:19:00;1.20;;;0.40;;
35150;SDS011;55720;51.972;4.624;2023-08-31T08:21:26;4.32;;;0.50;;
35150;SDS011;55720;51.972;4.624;2023-08-31T08:23:51;3.90;;;0.93;;
35150;SDS011;55720;51.972;4.624;2023-08-31T08:26:17;0.50;;;0.20;;
35150;SDS011;55720;51.972;4.624;2023-08-31T08:28:42;1.15;;;0.50;;
35150;SDS011;55720;51.972;4.624;2023-08-31T08:31:07;1.97;;;0.47;;
35150;SDS011;55720;51.972;4.624;2023-08-31T08:33:32;1.40;;;0.60;;
35150;SDS011;55720;51.972;4.624;2023-08-31T08:35:58;1.40;;;0.50;;
35150;SDS011;55720;51.972;4.624;2023-08-31T08:38:23;3.53;;;0.60;;
35150;SDS011;55720;51.972;4.624;2023-08-31T08:40:49;1.42;;;0.50;;
35150;SDS011;55720;51.972;4.624;2023-08-31T08:43:14;4.30;;;0.40;;
35150;SDS011;55720;51.972;4.624;2023-08-31T08:45:39;2.33;;;0.50;;
35150;SDS011;55720;51.972;4.624;2023-08-31T08:48:06;1.48;;;0.40;;
35150;SDS011;55720;51.972;4.624;2023-08-31T08:50:32;0.88;;;0.40;;
35150;SDS011;55720;51.972;4.624;2023-08-31T08:52:59;1.35;;;0.40;;
35150;SDS011;55720;51.972;4.624;2023-08-31T08:55:24;1.25;;;0.47;;
35150;SDS011;55720;51.972;4.624;2023-08-31T08:57:49;2.20;;;0.60;;
35150;SDS011;55720;51.972;4.624;2023-08-31T09:00:15;1.70;;;0.40;;
35150;SDS011;55720;51.972;4.624;2023-08-31T09:02:40;3.63;;;0.60;;
35150;SDS011;55720;51.972;4.624;2023-08-31T09:05:06;1.23;;;0.50;;
35150;SDS011;55720;51.972;4.624;2023-08-31T09:07:34;0.90;;;0.40;;
35150;SDS011;55720;51.972;4.624;2023-08-31T09:10:01;2.80;;;0.50;;
35150;SDS011;55720;51.972;4.624;2023-08-31T09:12:26;1.20;;;0.60;;
35150;SDS011;55720;51.972;4.624;2023-08-31T09:15:01;6.37;;;0.50;;
35150;SDS011;55720;51.972;4.624;2023-08-31T09:17:36;1.48;;;0.40;;
35150;SDS011;55720;51.972;4.624;2023-08-31T09:20:02;1.50;;;0.40;;
35150;SDS011;55720;51.972;4.624;2023-08-31T09:22:31;1.67;;;0.50;;
35150;SDS011;55720;51.972;4.624;2023-08-31T09:24:56;5.85;;;0.70;;
35150;SDS011;55720;51.972;4.624;2023-08-31T09:27:21;1.20;;;0.50;;
35150;SDS011;55720;51.972;4.624;2023-08-31T09:29:49;0.95;;;0.40;;
35150;SDS011;55720;51.972;4.624;2023-08-31T09:32:18;8.90;;;0.50;;
35150;SDS011;55720;51.972;4.624;2023-08-31T09:34:43;2.50;;;0.40;;
35150;SDS011;55720;51.972;4.624;2023-08-31T09:37:08;2.47;;;0.40;;
35150;SDS011;55720;51.972;4.624;2023-08-31T09:39:37;2.55;;;0.50;;
35150;SDS011;55720;51.972;4.624;2023-08-31T09:42:04;3.78;;;0.55;;
35150;SDS011;55720;51.972;4.624;2023-08-31T09:44:29;1.60;;;0.50;;
35150;SDS011;55720;51.972;4.624;2023-08-31T09:46:54;3.13;;;0.50;;
35150;SDS011;55720;51.972;4.624;2023-08-31T09:49:20;6.57;;;0.50;;
35150;SDS011;55720;51.972;4.624;2023-08-31T09:51:46;2.25;;;0.70;;
35150;SDS011;55720;51.972;4.624;2023-08-31T09:54:13;0.85;;;0.40;;
35150;SDS011;55720;51.972;4.624;2023-08-31T09:56:38;2.58;;;0.57;;
35150;SDS011;55720;51.972;4.624;2023-08-31T09:59:05;3.38;;;0.80;;
35150;SDS011;55720;51.972;4.624;2023-08-31T10:01:30;2.33;;;0.50;;
35150;SDS011;55720;51.972;4.624;2023-08-31T10:03:56;4.53;;;0.53;;
35150;SDS011;55720;51.972;4.624;2023-08-31T10:06:21;0.80;;;0.38;;
35150;SDS011;55720;51.972;4.624;2023-08-31T10:08:47;0.93;;;0.32;;
35150;SDS011;55720;51.972;4.624;2023-08-31T10:11:12;1.40;;;0.50;;
35150;SDS011;55720;51.972;4.624;2023-08-31T10:13:40;2.92;;;0.60;;
35150;SDS011;55720;51.972;4.624;2023-08-31T10:16:06;0.98;;;0.57;;
35150;SDS011;55720;51.972;4.624;2023-08-31T10:18:32;3.60;;;0.30;;
35150;SDS011;55720;51.972;4.624;2023-08-31T10:20:59;1.08;;;0.60;;
35150;SDS011;55720;51.972;4.624;2023-08-31T10:23:24;1.30;;;0.60;;
35150;SDS011;55720;51.972;4.624;2023-08-31T10:28:18;1.90;;;0.40;;
35150;SDS011;55720;51.972;4.624;2023-08-31T10:30:54;1.90;;;0.32;;
35150;SDS011;55720;51.972;4.624;2023-08-31T10:33:25;4.05;;;0.45;;
35150;SDS011;55720;51.972;4.624;2023-08-31T10:35:51;2.45;;;0.63;;
35150;SDS011;55720;51.972;4.624;2023-08-31T10:38:23;0.68;;;0.40;;
35150;SDS011;55720;51.972;4.624;2023-08-31T10:46:27;1.90;;;0.38;;
35150;SDS011;55720;51.972;4.624;2023-08-31T10:48:54;3.00;;;0.45;;
35150;SDS011;55720;51.972;4.624;2023-08-31T10:51:29;2.72;;;0.50;;
35150;SDS011;55720;51.972;4.624;2023-08-31T10:59:52;0.80;;;0.40;;
35150;SDS011;55720;51.972;4.624;2023-08-31T11:02:27;3.63;;;0.60;;
35150;SDS011;55720;51.972;4.624;2023-08-31T11:05:02;1.23;;;0.40;;
35150;SDS011;55720;51.972;4.624;2023-08-31T11:07:30;1.33;;;0.50;;
35150;SDS011;55720;51.972;4.624;2023-08-31T11:12:34;0.80;;;0.43;;
35150;SDS011;55720;51.972;4.624;2023-08-31T11:14:59;1.13;;;0.40;;
35150;SDS011;55720;51.972;4.624;2023-08-31T11:17:24;1.40;;;0.50;;
35150;SDS011;55720;51.972;4.624;2023-08-31T11:19:50;1.05;;;0.50;;
35150;SDS011;55720;51.972;4.624;2023-08-31T11:22:15;1.93;;;0.40;;
35150;SDS011;55720;51.972;4.624;2023-08-31T11:24:40;2.13;;;0.43;;
35150;SDS011;55720;51.972;4.624;2023-08-31T11:27:08;3.80;;;0.77;;
35150;SDS011;55720;51.972;4.624;2023-08-31T11:29:42;2.90;;;0.90;;
35150;SDS011;55720;51.972;4.624;2023-08-31T11:32:07;1.73;;;0.60;;
35150;SDS011;55720;51.972;4.624;2023-08-31T11:34:33;2.38;;;0.60;;
35150;SDS011;55720;51.972;4.624;2023-08-31T11:36:58;2.03;;;0.50;;
35150;SDS011;55720;51.972;4.624;2023-08-31T11:39:23;0.70;;;0.40;;
35150;SDS011;55720;51.972;4.624;2023-08-31T11:41:49;0.82;;;0.32;;
35150;SDS011;55720;51.972;4.624;2023-08-31T11:44:14;2.17;;;0.55;;
35150;SDS011;55720;51.972;4.624;2023-08-31T11:46:45;2.60;;;0.40;;
35150;SDS011;55720;51.972;4.624;2023-08-31T11:49:11;1.42;;;0.40;;
35150;SDS011;55720;51.972;4.624;2023-08-31T11:51:36;1.38;;;0.60;;
35150;SDS011;55720;51.972;4.624;2023-08-31T11:54:03;0.73;;;0.60;;
35150;SDS011;55720;51.972;4.624;2023-08-31T11:56:42;2.30;;;0.50;;
35150;SDS011;55720;51.972;4.624;2023-08-31T11:59:10;3.65;;;0.50;;
35150;SDS011;55720;51.972;4.624;2023-08-31T12:01:39;0.82;;;0.50;;
35150;SDS011;55720;51.972;4.624;2023-08-31T12:04:11;1.00;;;0.50;;
35150;SDS011;55720;51.972;4.624;2023-08-31T12:06:37;4.57;;;0.52;;
35150;SDS011;55720;51.972;4.624;2023-08-31T12:09:02;1.52;;;0.63;;
35150;SDS011;55720;51.972;4.624;2023-08-31T12:11:29;1.42;;;0.43;;
35150;SDS011;55720;51.972;4.624;2023-08-31T12:13:55;1.35;;;0.47;;
35150;SDS011;55720;51.972;4.624;2023-08-31T12:16:20;1.07;;;0.60;;
35150;SDS011;55720;51.972;4.624;2023-08-31T12:18:45;0.73;;;0.43;;
35150;SDS011;55720;51.972;4.624;2023-08-31T12:21:10;1.85;;;0.40;;
35150;SDS011;55720;51.972;4.624;2023-08-31T12:23:36;1.10;;;0.73;;
35150;SDS011;55720;51.972;4.624;2023-08-31T12:26:01;1.23;;;0.63;;
35150;SDS011;55720;51.972;4.624;2023-08-31T12:28:27;2.30;;;0.50;;
35150;SDS011;55720;51.972;4.624;2023-08-31T12:30:53;1.70;;;0.57;;
35150;SDS011;55720;51.972;4.624;2023-08-31T12:33:19;2.80;;;0.88;;
35150;SDS011;55720;51.972;4.624;2023-08-31T12:35:44;1.65;;;0.50;;
35150;SDS011;55720;51.972;4.624;2023-08-31T12:38:09;2.58;;;0.40;;
35150;SDS011;55720;51.972;4.624;2023-08-31T12:40:35;1.70;;;0.50;;
35150;SDS011;55720;51.972;4.624;2023-08-31T12:43:00;3.22;;;0.80;;
35150;SDS011;55720;51.972;4.624;2023-08-31T12:45:25;3.60;;;0.77;;
35150;SDS011;55720;51.972;4.624;2023-08-31T12:47:50;0.90;;;0.40;;
35150;SDS011;55720;51.972;4.624;2023-08-31T12:50:16;1.70;;;0.50;;
35150;SDS011;55720;51.972;4.624;2023-08-31T12:52:42;1.50;;;0.60;;
35150;SDS011;55720;51.972;4.624;2023-08-31T12:55:11;5.68;;;0.40;;
35150;SDS011;55720;51.972;4.624;2023-08-31T12:57:36;0.82;;;0.55;;
35150;SDS011;55720;51.972;4.624;2023-08-31T13:00:02;1.03;;;0.50;;
35150;SDS011;55720;51.972;4.624;2023-08-31T13:02:29;2.15;;;0.60;;
35150;SDS011;55720;51.972;4.624;2023-08-31T13:04:55;0.87;;;0.50;;
35150;SDS011;55720;51.972;4.624;2023-08-31T13:07:20;3.27;;;0.50;;
35150;SDS011;55720;51.972;4.624;2023-08-31T13:09:45;1.57;;;0.57;;
35150;SDS011;55720;51.972;4.624;2023-08-31T13:12:10;3.17;;;0.50;;
35150;SDS011;55720;51.972;4.624;2023-08-31T13:14:36;1.63;;;0.60;;
35150;SDS011;55720;51.972;4.624;2023-08-31T13:17:01;2.93;;;1.47;;
35150;SDS011;55720;51.972;4.624;2023-08-31T13:19:26;2.60;;;0.60;;
35150;SDS011;55720;51.972;4.624;2023-08-31T13:21:52;1.43;;;0.63;;
35150;SDS011;55720;51.972;4.624;2023-08-31T13:24:17;1.83;;;0.70;;
35150;SDS011;55720;51.972;4.624;2023-08-31T13:26:42;2.47;;;0.80;;
35150;SDS011;55720;51.972;4.624;2023-08-31T13:29:12;1.10;;;0.57;;
35150;SDS011;55720;51.972;4.624;2023-08-31T13:31:37;3.43;;;0.60;;
35150;SDS011;55720;51.972;4.624;2023-08-31T13:34:02;1.73;;;0.70;;
35150;SDS011;55720;51.972;4.624;2023-08-31T13:36:28;2.85;;;0.77;;
35150;SDS011;55720;51.972;4.624;2023-08-31T13:38:53;3.83;;;0.63;;
35150;SDS011;55720;51.972;4.624;2023-08-31T13:41:19;1.90;;;0.63;;
35150;SDS011;55720;51.972;4.624;2023-08-31T13:43:44;2.40;;;0.40;;
35150;SDS011;55720;51.972;4.624;2023-08-31T13:46:09;2.63;;;0.70;;
35150;SDS011;55720;51.972;4.624;2023-08-31T13:48:34;3.05;;;0.60;;
35150;SDS011;55720;51.972;4.624;2023-08-31T13:51:00;5.73;;;0.93;;
35150;SDS011;55720;51.972;4.624;2023-08-31T13:53:25;1.47;;;0.60;;
35150;SDS011;55720;51.972;4.624;2023-08-31T13:55:50;4.03;;;0.80;;
35150;SDS011;55720;51.972;4.624;2023-08-31T13:58:15;3.03;;;0.53;;
35150;SDS011;55720;51.972;4.624;2023-08-31T14:00:41;1.60;;;0.60;;
35150;SDS011;55720;51.972;4.624;2023-08-31T14:03:07;2.35;;;0.60;;
35150;SDS011;55720;51.972;4.624;2023-08-31T14:05:32;2.63;;;0.57;;
35150;SDS011;55720;51.972;4.624;2023-08-31T14:07:57;1.83;;;0.63;;
35150;SDS011;55720;51.972;4.624;2023-08-31T14:10:26;1.33;;;0.70;;
35150;SDS011;55720;51.972;4.624;2023-08-31T14:12:51;0.98;;;0.60;;
35150;SDS011;55720;51.972;4.624;2023-08-31T14:15:17;2.85;;;0.85;;
35150;SDS011;55720;51.972;4.624;2023-08-31T14:17:42;3.60;;;0.80;;
35150;SDS011;55720;51.972;4.624;2023-08-31T14:20:07;2.07;;;0.60;;
35150;SDS011;55720;51.972;4.624;2023-08-31T14:22:34;3.58;;;0.75;;
35150;SDS011;55720;51.972;4.624;2023-08-31T14:25:00;3.87;;;0.80;;
35150;SDS011;55720;51.972;4.624;2023-08-31T14:27:25;0.65;;;0.50;;
35150;SDS011;55720;51.972;4.624;2023-08-31T14:29:52;7.53;;;1.05;;
35150;SDS011;55720;51.972;4.624;2023-08-31T14:32:17;3.17;;;0.70;;
35150;SDS011;55720;51.972;4.624;2023-08-31T14:34:42;1.40;;;0.68;;
35150;SDS011;55720;51.972;4.624;2023-08-31T14:37:08;2.38;;;0.70;;
35150;SDS011;55720;51.972;4.624;2023-08-31T14:39:33;2.37;;;0.53;;
35150;SDS011;55720;51.972;4.624;2023-08-31T14:41:58;2.47;;;0.97;;
35150;SDS011;55720;51.972;4.624;2023-08-31T14:44:24;2.25;;;0.70;;
35150;SDS011;55720;51.972;4.624;2023-08-31T14:46:49;3.72;;;0.70;;
35150;SDS011;55720;51.972;4.624;2023-08-31T14:49:15;4.67;;;0.83;;
35150;SDS011;55720;51.972;4.624;2023-08-31T14:51:40;1.87;;;0.60;;
35150;SDS011;55720;51.972;4.624;2023-08-31T14:54:06;2.20;;;0.95;;
35150;SDS011;55720;51.972;4.624;2023-08-31T14:56:31;3.40;;;0.80;;
35150;SDS011;55720;51.972;4.624;2023-08-31T14:58:56;2.33;;;0.70;;
35150;SDS011;55720;51.972;4.624;2023-08-31T15:01:22;4.30;;;0.50;;
35150;SDS011;55720;51.972;4.624;2023-08-31T15:03:49;3.38;;;0.93;;
35150;SDS011;55720;51.972;4.624;2023-08-31T15:06:14;2.00;;;0.67;;